createdAt,value
2023-02-25T00:01:08.402Z,8.63
2023-02-25T00:03:35.885Z,8.25
2023-02-25T00:06:03.314Z,4.00
2023-02-25T00:08:30.292Z,12.27
2023-02-25T00:11:01.501Z,8.50
2023-02-25T00:13:28.850Z,10.18
2023-02-25T00:15:58.101Z,13.88
2023-02-25T00:18:28.440Z,10.60
2023-02-25T00:20:55.019Z,7.70
2023-02-25T00:23:21.499Z,6.90
2023-02-25T00:25:48.014Z,9.73
2023-02-25T00:28:14.863Z,8.50
2023-02-25T00:30:42.669Z,9.75
2023-02-25T00:33:11.379Z,13.30
2023-02-25T00:35:41.085Z,7.55
2023-02-25T00:38:15.608Z,9.40
2023-02-25T00:40:45.099Z,10.20
2023-02-25T00:43:11.724Z,8.60
2023-02-25T00:45:40.502Z,13.43
2023-02-25T00:48:07.694Z,11.98
2023-02-25T00:50:36.555Z,8.98
2023-02-25T00:53:03.125Z,7.32
2023-02-25T00:55:33.507Z,9.63
2023-02-25T00:58:01.380Z,9.27
2023-02-25T01:00:29.157Z,7.43
2023-02-25T01:02:57.541Z,13.88
2023-02-25T01:05:24.124Z,9.05
2023-02-25T01:07:50.977Z,12.98
2023-02-25T01:10:17.576Z,17.90
2023-02-25T01:12:44.064Z,11.48
2023-02-25T01:15:11.353Z,12.25
2023-02-25T01:17:37.981Z,9.68
2023-02-25T01:20:11.252Z,11.10
2023-02-25T01:22:41.570Z,15.40
2023-02-25T01:25:12.943Z,12.38
2023-02-25T01:27:39.750Z,10.63
2023-02-25T01:30:06.892Z,9.82
2023-02-25T01:32:33.599Z,14.27
2023-02-25T01:35:00.170Z,9.30
2023-02-25T01:37:26.759Z,16.20
2023-02-25T01:39:53.743Z,14.52
2023-02-25T01:42:20.356Z,10.15
2023-02-25T01:45:09.105Z,13.48
2023-02-25T01:47:38.448Z,14.47
2023-02-25T01:50:06.175Z,11.07
2023-02-25T01:52:32.796Z,17.13
2023-02-25T01:54:59.662Z,14.02
2023-02-25T01:57:26.838Z,13.63
2023-02-25T01:59:54.748Z,12.40
2023-02-25T02:02:23.251Z,12.88
2023-02-25T02:04:52.889Z,11.77
2023-02-25T02:07:20.792Z,10.55
2023-02-25T02:09:56.370Z,12.68
2023-02-25T02:12:28.886Z,7.97
2023-02-25T02:14:57.989Z,11.55
2023-02-25T02:17:32.934Z,13.20
2023-02-25T02:19:59.450Z,15.02
2023-02-25T02:22:36.791Z,17.15
2023-02-25T02:25:40.992Z,8.70
2023-02-25T02:28:17.716Z,12.55
2023-02-25T02:30:48.448Z,10.57
2023-02-25T02:33:39.422Z,13.90
2023-02-25T02:36:13.317Z,12.30
2023-02-25T02:38:47.660Z,14.73
2023-02-25T02:41:35.512Z,14.25
2023-02-25T02:44:16.944Z,12.95
2023-02-25T02:46:52.308Z,19.10
2023-02-25T02:49:40.974Z,13.63
2023-02-25T02:52:15.282Z,22.43
2023-02-25T02:54:49.550Z,9.93
2023-02-25T02:57:19.760Z,20.05
2023-02-25T02:59:58.106Z,10.82
2023-02-25T03:02:34.164Z,10.23
2023-02-25T03:05:06.953Z,10.67
2023-02-25T03:07:40.147Z,15.07
2023-02-25T03:10:11.319Z,17.02
2023-02-25T03:12:38.874Z,12.88
2023-02-25T03:15:06.499Z,14.23
2023-02-25T03:17:42.875Z,14.60
2023-02-25T03:20:26.685Z,12.38
2023-02-25T03:22:56.141Z,14.57
2023-02-25T03:25:31.934Z,15.48
2023-02-25T03:28:03.935Z,13.18
2023-02-25T03:30:48.097Z,19.10
2023-02-25T03:33:26.929Z,13.30
2023-02-25T03:35:56.406Z,18.02
2023-02-25T03:38:29.046Z,14.68
2023-02-25T03:40:59.871Z,12.10
2023-02-25T03:43:33.688Z,17.83
2023-02-25T03:46:02.057Z,13.73
2023-02-25T03:48:29.855Z,18.83
2023-02-25T03:51:00.686Z,15.20
2023-02-25T03:53:29.439Z,9.68
2023-02-25T03:56:05.436Z,9.77
2023-02-25T03:58:34.702Z,12.43
2023-02-25T04:01:05.295Z,11.90
2023-02-25T04:03:32.041Z,14.68
2023-02-25T04:05:59.346Z,11.15
2023-02-25T04:08:26.682Z,12.80
2023-02-25T04:10:53.219Z,16.33
2023-02-25T04:13:20.883Z,10.43
2023-02-25T04:15:49.385Z,13.07
2023-02-25T04:18:16.468Z,14.35
2023-02-25T04:20:43.171Z,14.53
2023-02-25T04:23:13.192Z,19.25
2023-02-25T04:25:39.804Z,16.15
2023-02-25T04:28:06.702Z,13.57
2023-02-25T04:30:34.367Z,8.23
2023-02-25T04:33:01.072Z,12.53
2023-02-25T04:35:27.609Z,12.13
2023-02-25T04:37:54.163Z,18.30
2023-02-25T04:40:22.514Z,10.35
2023-02-25T04:42:49.338Z,14.73
2023-02-25T04:45:16.120Z,18.47
2023-02-25T04:47:43.035Z,18.35
2023-02-25T04:50:11.763Z,15.27
2023-02-25T04:52:38.376Z,13.63
2023-02-25T04:55:05.587Z,15.35
2023-02-25T04:57:32.050Z,15.33
2023-02-25T04:59:58.540Z,15.23
2023-02-25T05:02:25.036Z,16.25
2023-02-25T05:04:51.557Z,18.33
2023-02-25T05:07:18.109Z,11.93
2023-02-25T05:09:44.802Z,10.63
2023-02-25T05:12:11.326Z,16.30
2023-02-25T05:14:37.884Z,14.20
2023-02-25T05:17:04.778Z,19.02
2023-02-25T05:19:31.534Z,17.65
2023-02-25T05:21:58.050Z,11.47
2023-02-25T05:24:24.801Z,15.23
2023-02-25T05:26:51.735Z,20.27
2023-02-25T05:29:18.327Z,14.82
2023-02-25T05:31:44.959Z,12.23
2023-02-25T05:34:11.705Z,13.23
2023-02-25T05:36:38.227Z,13.90
2023-02-25T05:39:06.243Z,16.10
2023-02-25T05:41:32.973Z,15.48
2023-02-25T05:43:59.537Z,15.43
2023-02-25T05:46:26.653Z,14.47
2023-02-25T05:48:54.109Z,13.13
2023-02-25T05:51:23.256Z,13.25
2023-02-25T05:53:51.071Z,11.00
2023-02-25T05:56:23.732Z,21.83
2023-02-25T05:58:50.899Z,13.00
2023-02-25T06:01:20.598Z,14.43
2023-02-25T06:03:48.071Z,15.63
2023-02-25T06:06:17.140Z,12.27
2023-02-25T06:08:46.989Z,13.27
2023-02-25T06:11:18.290Z,13.27
2023-02-25T06:13:44.890Z,10.25
2023-02-25T06:16:11.435Z,15.30
2023-02-25T06:18:37.984Z,10.05
2023-02-25T06:21:09.287Z,11.65
2023-02-25T06:23:37.696Z,12.40
2023-02-25T06:26:06.347Z,11.85
2023-02-25T06:28:32.927Z,16.25
2023-02-25T06:31:00.365Z,18.45
2023-02-25T06:33:29.046Z,12.38
2023-02-25T06:35:56.494Z,10.53
2023-02-25T06:38:23.318Z,12.35
2023-02-25T06:40:49.996Z,11.10
2023-02-25T06:43:17.224Z,8.85
2023-02-25T06:45:44.151Z,14.52
2023-02-25T06:48:10.836Z,17.57
2023-02-25T06:50:39.370Z,16.63
2023-02-25T06:53:06.286Z,8.45
2023-02-25T06:55:32.926Z,10.93
2023-02-25T06:57:59.392Z,5.95
2023-02-25T07:00:26.142Z,11.90
2023-02-25T07:02:52.645Z,8.60
2023-02-25T07:05:19.134Z,8.20
2023-02-25T07:07:45.625Z,8.30
2023-02-25T07:10:12.427Z,12.95
2023-02-25T07:12:38.880Z,7.57
2023-02-25T07:15:05.896Z,8.68
2023-02-25T07:17:32.379Z,8.45
2023-02-25T07:19:58.893Z,7.88
2023-02-25T07:22:25.522Z,6.10
2023-02-25T07:24:51.940Z,13.13
2023-02-25T07:27:18.632Z,7.45
2023-02-25T07:29:45.194Z,6.30
2023-02-25T07:32:11.865Z,9.25
2023-02-25T07:34:39.224Z,10.00
2023-02-25T07:37:05.718Z,11.43
2023-02-25T07:39:32.200Z,8.55
2023-02-25T07:41:58.772Z,5.38
2023-02-25T07:44:28.078Z,6.13
2023-02-25T07:46:54.571Z,5.72
2023-02-25T07:49:21.019Z,5.43
2023-02-25T07:51:47.493Z,7.10
2023-02-25T07:54:15.535Z,4.60
2023-02-25T07:56:42.062Z,7.03
2023-02-25T07:59:08.622Z,5.70
2023-02-25T08:01:35.116Z,3.50
2023-02-25T08:04:04.673Z,2.90
2023-02-25T08:06:34.302Z,4.28
2023-02-25T08:09:00.815Z,10.20
2023-02-25T08:11:27.570Z,2.83
2023-02-25T08:13:54.280Z,3.50
2023-02-25T08:16:21.732Z,4.57
2023-02-25T08:18:48.881Z,3.55
2023-02-25T08:21:18.108Z,2.28
2023-02-25T08:23:44.941Z,5.97
2023-02-25T08:26:11.479Z,2.50
2023-02-25T08:28:37.972Z,4.70
2023-02-25T08:31:08.372Z,1.02
2023-02-25T08:33:35.265Z,1.60
2023-02-25T08:36:16.996Z,3.70
2023-02-25T08:38:44.591Z,3.30
2023-02-25T08:41:12.183Z,3.08
2023-02-25T08:43:38.942Z,4.03
2023-02-25T08:46:06.600Z,3.75
2023-02-25T08:48:34.594Z,4.55
2023-02-25T08:51:09.512Z,1.47
2023-02-25T08:53:38.608Z,4.55
2023-02-25T08:56:10.411Z,3.22
2023-02-25T08:58:37.661Z,2.78
2023-02-25T09:01:17.795Z,4.85
2023-02-25T09:03:53.795Z,3.77
2023-02-25T09:09:08.661Z,7.50
2023-02-25T09:11:35.430Z,2.72
2023-02-25T09:14:02.136Z,4.13
2023-02-25T09:16:30.058Z,2.77
2023-02-25T09:18:56.982Z,5.10
2023-02-25T09:21:24.383Z,4.32
2023-02-25T09:23:51.872Z,0.90
2023-02-25T09:26:20.133Z,3.70
2023-02-25T09:28:47.480Z,4.00
2023-02-25T09:31:15.930Z,3.10
2023-02-25T09:33:43.265Z,2.85
2023-02-25T09:36:13.069Z,3.95
2023-02-25T09:38:41.332Z,3.15
2023-02-25T09:41:40.154Z,4.13
2023-02-25T09:44:19.381Z,3.17
2023-02-25T09:47:04.830Z,4.63
2023-02-25T09:49:34.566Z,4.90
2023-02-25T09:52:07.266Z,6.10
2023-02-25T09:54:39.615Z,3.97
2023-02-25T09:57:07.922Z,3.70
2023-02-25T09:59:35.720Z,4.50
2023-02-25T10:02:33.401Z,5.68
2023-02-25T10:05:22.315Z,10.02
2023-02-25T10:08:02.040Z,8.83
2023-02-25T10:10:35.547Z,4.22
2023-02-25T10:13:26.991Z,7.65
2023-02-25T10:16:06.211Z,3.35
2023-02-25T10:18:48.942Z,8.07
2023-02-25T10:21:18.469Z,2.53
2023-02-25T10:24:20.514Z,7.22
2023-02-25T10:26:51.010Z,7.30
2023-02-25T10:29:30.204Z,6.00
2023-02-25T10:32:16.216Z,6.40
2023-02-25T10:34:43.095Z,5.97
2023-02-25T10:37:31.371Z,10.13
2023-02-25T10:40:02.929Z,4.90
2023-02-25T10:42:43.816Z,10.75
2023-02-25T10:45:14.986Z,6.43
2023-02-25T10:47:47.434Z,10.20
2023-02-25T10:50:16.125Z,5.95
2023-02-25T10:53:03.843Z,17.88
2023-02-25T10:55:54.924Z,6.00
2023-02-25T10:58:38.698Z,5.60
2023-02-25T11:01:10.080Z,8.10
2023-02-25T11:03:46.807Z,7.50
2023-02-25T11:06:13.821Z,6.40
2023-02-25T11:08:42.076Z,5.18
2023-02-25T11:11:52.744Z,8.10
2023-02-25T11:14:19.544Z,9.40
2023-02-25T11:16:46.576Z,4.78
2023-02-25T11:19:22.901Z,7.38
2023-02-25T11:21:50.146Z,5.38
2023-02-25T11:24:22.594Z,4.78
2023-02-25T11:26:51.845Z,6.67
2023-02-25T11:29:25.080Z,7.50
2023-02-25T11:32:07.757Z,6.28
2023-02-25T11:34:46.096Z,6.57
2023-02-25T11:37:43.052Z,9.85
2023-02-25T11:40:32.772Z,12.10
2023-02-25T11:43:05.391Z,3.30
2023-02-25T11:45:35.337Z,6.70
2023-02-25T11:48:15.728Z,8.88
2023-02-25T11:51:06.332Z,7.72
2023-02-25T11:53:54.877Z,7.93
2023-02-25T11:56:35.770Z,7.95
2023-02-25T11:59:15.930Z,11.40
2023-02-25T12:02:10.147Z,5.20
2023-02-25T12:05:17.727Z,5.63
2023-02-25T12:08:14.295Z,7.90
2023-02-25T12:11:07.021Z,6.47
2023-02-25T12:14:08.863Z,8.15
2023-02-25T12:17:09.902Z,6.88
2023-02-25T12:20:14.564Z,8.02
2023-02-25T12:23:18.599Z,9.83
2023-02-25T12:26:06.677Z,7.55
2023-02-25T12:28:51.959Z,8.18
2023-02-25T12:31:43.373Z,4.68
2023-02-25T12:34:37.976Z,5.32
2023-02-25T12:37:13.676Z,3.63
2023-02-25T12:40:08.304Z,3.88
2023-02-25T12:42:53.296Z,2.85
2023-02-25T12:45:51.558Z,6.43
2023-02-25T12:48:30.194Z,3.95
2023-02-25T12:51:13.087Z,2.80
2023-02-25T12:53:51.109Z,9.40
2023-02-25T12:57:05.504Z,3.70
2023-02-25T13:00:02.102Z,5.32
2023-02-25T13:06:16.307Z,5.00
2023-02-25T13:09:16.013Z,5.13
2023-02-25T13:12:26.005Z,3.22
2023-02-25T13:15:16.757Z,2.08
2023-02-25T13:17:52.470Z,3.97
2023-02-25T13:20:43.664Z,2.87
2023-02-25T13:23:20.617Z,1.48
2023-02-25T13:26:11.785Z,2.40
2023-02-25T13:28:57.070Z,3.10
2023-02-25T13:31:45.568Z,4.70
2023-02-25T13:34:24.323Z,2.80
2023-02-25T13:37:28.730Z,5.53
2023-02-25T13:40:05.314Z,2.67
2023-02-25T13:42:57.086Z,2.83
2023-02-25T13:45:47.767Z,2.65
2023-02-25T13:48:33.558Z,4.33
2023-02-25T13:51:00.138Z,3.83
2023-02-25T13:53:57.232Z,2.42
2023-02-25T13:56:43.616Z,3.88
2023-02-25T13:59:42.258Z,4.07
2023-02-25T14:02:33.705Z,2.57
2023-02-25T14:05:03.185Z,3.47
2023-02-25T14:07:48.222Z,1.67
2023-02-25T14:10:44.536Z,2.47
2023-02-25T14:13:31.565Z,3.05
2023-02-25T14:16:18.601Z,3.53
2023-02-25T14:19:03.922Z,3.65
2023-02-25T14:21:53.315Z,3.70
2023-02-25T14:24:41.272Z,3.88
2023-02-25T14:27:32.910Z,6.05
2023-02-25T14:30:15.084Z,3.60
2023-02-25T14:33:08.164Z,5.45
2023-02-25T14:35:46.758Z,8.68
2023-02-25T14:38:22.282Z,3.67
2023-02-25T14:41:07.632Z,3.95
2023-02-25T14:43:38.332Z,4.53
2023-02-25T14:46:18.822Z,3.83
2023-02-25T14:48:59.929Z,4.80
2023-02-25T14:51:38.545Z,4.40
2023-02-25T14:54:40.290Z,4.80
2023-02-25T14:57:52.755Z,2.87
2023-02-25T15:00:50.379Z,7.63
2023-02-25T15:03:42.984Z,4.50
2023-02-25T15:06:42.238Z,4.85
2023-02-25T15:09:13.972Z,3.47
2023-02-25T15:12:02.024Z,4.77
2023-02-25T15:14:49.324Z,6.43
2023-02-25T15:17:41.030Z,3.97
2023-02-25T15:20:23.303Z,6.07
2023-02-25T15:23:17.764Z,4.75
2023-02-25T15:25:55.549Z,4.47
2023-02-25T15:28:31.529Z,3.47
2023-02-25T15:31:01.451Z,1.95
2023-02-25T15:33:42.097Z,4.30
2023-02-25T15:36:14.833Z,5.30
2023-02-25T15:38:44.308Z,4.67
2023-02-25T15:41:29.352Z,9.23
2023-02-25T15:44:21.551Z,6.82
2023-02-25T15:46:49.761Z,5.68
2023-02-25T15:49:32.290Z,7.85
2023-02-25T15:52:04.180Z,4.97
2023-02-25T15:54:31.181Z,6.65
2023-02-25T15:57:23.379Z,4.07
2023-02-25T15:59:59.892Z,5.63
2023-02-25T16:02:26.587Z,5.55
2023-02-25T16:05:09.500Z,9.03
2023-02-25T16:07:40.204Z,3.35
2023-02-25T16:10:27.738Z,6.50
2023-02-25T16:12:57.563Z,4.25
2023-02-25T16:15:38.280Z,5.75
2023-02-25T16:18:17.456Z,5.13
2023-02-25T16:20:50.170Z,3.78
2023-02-25T16:23:18.074Z,3.53
2023-02-25T16:25:56.764Z,6.82
2023-02-25T16:28:38.527Z,5.35
2023-02-25T16:31:21.828Z,5.33
2023-02-25T16:33:53.626Z,3.72
2023-02-25T16:36:34.179Z,6.03
2023-02-25T16:39:16.519Z,5.30
2023-02-25T16:41:43.797Z,2.72
2023-02-25T16:44:18.780Z,6.50
2023-02-25T16:46:50.574Z,3.00
2023-02-25T16:49:50.264Z,6.00
2023-02-25T16:52:34.825Z,6.25
2023-02-25T16:55:05.616Z,7.35
2023-02-25T16:57:34.095Z,7.97
2023-02-25T17:00:17.392Z,4.55
2023-02-25T17:02:50.070Z,7.90
2023-02-25T17:05:28.078Z,8.75
2023-02-25T17:08:01.197Z,7.90
2023-02-25T17:10:34.998Z,6.53
2023-02-25T17:13:03.043Z,7.25
2023-02-25T17:15:33.209Z,6.63
2023-02-25T17:18:06.537Z,5.95
2023-02-25T17:20:33.514Z,6.70
2023-02-25T17:23:07.814Z,3.40
2023-02-25T17:25:40.897Z,4.05
2023-02-25T17:28:15.936Z,7.78
2023-02-25T17:30:48.212Z,8.40
2023-02-25T17:33:19.828Z,7.38
2023-02-25T17:35:48.065Z,8.53
2023-02-25T17:38:23.782Z,6.13
2023-02-25T17:40:52.819Z,6.00
2023-02-25T17:43:23.808Z,6.18
2023-02-25T17:45:57.674Z,4.30
2023-02-25T17:48:27.742Z,3.47
2023-02-25T17:51:08.001Z,8.75
2023-02-25T17:53:47.058Z,10.30
2023-02-25T17:56:26.791Z,7.30
2023-02-25T17:59:27.948Z,7.55
2023-02-25T18:01:57.336Z,5.03
2023-02-25T18:04:38.002Z,8.48
2023-02-25T18:07:21.520Z,5.97
2023-02-25T18:09:49.012Z,3.28
2023-02-25T18:12:28.951Z,8.13
2023-02-25T18:14:58.673Z,6.00
2023-02-25T18:17:29.758Z,4.10
2023-02-25T18:19:59.134Z,6.90
2023-02-25T18:22:37.701Z,9.65
2023-02-25T18:25:29.442Z,7.47
2023-02-25T18:27:56.400Z,5.90
2023-02-25T18:30:28.756Z,10.32
2023-02-25T18:32:59.984Z,7.07
2023-02-25T18:35:38.944Z,5.43
2023-02-25T18:38:06.227Z,5.05
2023-02-25T18:40:41.235Z,7.30
2023-02-25T18:43:17.728Z,5.80
2023-02-25T18:45:45.643Z,6.85
2023-02-25T18:48:12.788Z,7.55
2023-02-25T18:50:44.784Z,4.68
2023-02-25T18:53:18.586Z,9.00
2023-02-25T18:55:45.989Z,8.38
2023-02-25T18:58:14.624Z,5.65
2023-02-25T19:00:45.816Z,8.00
2023-02-25T19:03:36.689Z,5.45
2023-02-25T19:06:04.525Z,8.47
2023-02-25T19:08:31.661Z,6.25
2023-02-25T19:11:01.264Z,5.68
2023-02-25T19:13:37.400Z,5.72
2023-02-25T19:16:04.466Z,8.55
2023-02-25T19:18:31.261Z,7.03
2023-02-25T19:20:58.184Z,4.53
2023-02-25T19:23:25.377Z,7.85
2023-02-25T19:25:59.026Z,5.47
2023-02-25T19:28:26.817Z,6.75
2023-02-25T19:30:55.865Z,10.90
2023-02-25T19:33:22.783Z,5.10
2023-02-25T19:35:49.751Z,7.85
2023-02-25T19:38:19.446Z,8.15
2023-02-25T19:40:47.670Z,9.68
2023-02-25T19:43:15.556Z,6.80
2023-02-25T19:45:43.242Z,6.65
2023-02-25T19:48:10.689Z,7.10
2023-02-25T19:50:40.823Z,6.93
2023-02-25T19:53:07.697Z,7.07
2023-02-25T19:55:34.795Z,8.00
2023-02-25T19:58:02.089Z,8.13
2023-02-25T20:00:28.881Z,6.90
2023-02-25T20:02:56.325Z,8.18
2023-02-25T20:05:24.122Z,9.75
2023-02-25T20:07:51.303Z,6.43
2023-02-25T20:10:18.644Z,4.60
2023-02-25T20:12:46.342Z,8.25
2023-02-25T20:15:13.946Z,8.23
2023-02-25T20:17:42.224Z,9.07
2023-02-25T20:20:10.791Z,6.93
2023-02-25T20:22:39.207Z,8.45
2023-02-25T20:25:07.796Z,9.77
2023-02-25T20:27:37.120Z,13.75
2023-02-25T20:30:06.600Z,6.95
2023-02-25T20:32:34.166Z,6.37
2023-02-25T20:35:01.126Z,22.35
2023-02-25T20:37:31.621Z,15.45
2023-02-25T20:39:59.974Z,7.28
2023-02-25T20:42:31.124Z,8.25
2023-02-25T20:44:58.882Z,9.83
2023-02-25T20:47:28.050Z,8.60
2023-02-25T20:49:56.183Z,8.35
2023-02-25T20:52:23.433Z,13.00
2023-02-25T20:54:50.209Z,11.00
2023-02-25T20:57:19.865Z,10.73
2023-02-25T20:59:48.327Z,8.48
2023-02-25T21:02:16.718Z,9.63
2023-02-25T21:04:44.879Z,10.73
2023-02-25T21:07:11.982Z,5.13
2023-02-25T21:09:39.279Z,10.97
2023-02-25T21:12:07.047Z,7.50
2023-02-25T21:14:34.108Z,14.00
2023-02-25T21:17:00.866Z,11.05
2023-02-25T21:19:28.213Z,8.75
2023-02-25T21:21:55.155Z,7.37
2023-02-25T21:24:21.918Z,8.90
2023-02-25T21:26:50.973Z,8.27
2023-02-25T21:29:17.960Z,7.97
2023-02-25T21:31:45.457Z,8.80
2023-02-25T21:34:13.149Z,7.77
2023-02-25T21:36:41.795Z,6.78
2023-02-25T21:39:09.663Z,7.05
2023-02-25T21:41:38.169Z,8.65
2023-02-25T21:44:05.138Z,8.55
2023-02-25T21:46:35.049Z,6.63
2023-02-25T21:49:01.994Z,7.88
2023-02-25T21:51:29.122Z,7.65
2023-02-25T21:53:58.019Z,8.38
2023-02-25T21:56:27.847Z,9.82
2023-02-25T21:58:59.197Z,8.37
2023-02-25T22:01:30.510Z,12.18
2023-02-25T22:03:57.809Z,14.60
2023-02-25T22:06:26.434Z,17.08
2023-02-25T22:08:54.740Z,14.98
2023-02-25T22:11:34.137Z,15.73
2023-02-25T22:14:03.055Z,19.63
2023-02-25T22:16:29.835Z,15.20
2023-02-25T22:18:57.378Z,11.05
2023-02-25T22:21:26.882Z,12.30
2023-02-25T22:23:56.173Z,8.20
2023-02-25T22:26:26.426Z,8.65
2023-02-25T22:28:58.226Z,12.35
2023-02-25T22:31:25.900Z,13.07
2023-02-25T22:33:53.219Z,11.52
2023-02-25T22:36:20.355Z,23.23
2023-02-25T22:38:49.072Z,27.63
2023-02-25T22:41:19.015Z,16.77
2023-02-25T22:43:46.660Z,24.30
2023-02-25T22:46:18.776Z,12.30
2023-02-25T22:48:47.523Z,14.57
2023-02-25T22:51:19.428Z,15.27
2023-02-25T22:53:46.264Z,10.77
2023-02-25T22:56:13.071Z,16.05
2023-02-25T22:58:40.785Z,13.55
2023-02-25T23:01:08.968Z,25.77
2023-02-25T23:03:36.019Z,22.48
2023-02-25T23:06:02.836Z,21.45
2023-02-25T23:08:29.724Z,21.23
2023-02-25T23:10:56.665Z,30.83
2023-02-25T23:13:23.496Z,32.43
2023-02-25T23:15:50.372Z,31.88
2023-02-25T23:18:18.772Z,21.38
2023-02-25T23:20:47.494Z,18.85
2023-02-25T23:23:17.717Z,12.48
2023-02-25T23:25:51.435Z,9.30
2023-02-25T23:28:18.781Z,11.38
2023-02-25T23:30:47.915Z,16.17
2023-02-25T23:33:14.658Z,9.77
2023-02-25T23:35:42.187Z,12.07
2023-02-25T23:38:09.623Z,12.20
2023-02-25T23:40:36.412Z,9.75
2023-02-25T23:43:03.339Z,11.93
2023-02-25T23:45:30.166Z,9.00
2023-02-25T23:47:57.112Z,14.25
2023-02-25T23:50:23.898Z,6.20
2023-02-25T23:52:50.991Z,8.75
2023-02-25T23:55:17.813Z,11.93
2023-02-25T23:57:44.605Z,9.07
